createdAt,value
2023-03-23T15:59:41.890Z,7.53
2023-03-23T16:02:20.595Z,4.60
2023-03-23T16:04:50.378Z,6.77
2023-03-23T16:07:20.764Z,4.80
2023-03-23T16:09:48.782Z,9.60
2023-03-23T16:12:17.794Z,5.70
2023-03-23T16:14:45.813Z,7.10
2023-03-23T16:17:23.242Z,8.10
2023-03-23T16:19:52.603Z,7.93
2023-03-23T16:22:20.864Z,7.93
2023-03-23T16:24:48.835Z,9.80
2023-03-23T16:27:21.443Z,7.53
2023-03-23T16:30:03.017Z,8.57
2023-03-23T16:35:03.874Z,7.10
2023-03-23T16:37:33.741Z,9.83
2023-03-23T16:40:01.989Z,8.97
2023-03-23T16:42:30.340Z,10.67
2023-03-23T16:44:58.408Z,12.47
2023-03-23T16:47:26.786Z,11.07
2023-03-23T16:49:55.224Z,13.93
2023-03-23T16:52:26.292Z,20.63
2023-03-23T16:54:55.274Z,27.83
2023-03-23T16:57:23.261Z,30.23
2023-03-23T16:59:55.410Z,30.80
2023-03-23T17:02:23.862Z,30.53
2023-03-23T17:04:53.432Z,22.67
2023-03-23T17:07:21.450Z,14.13
2023-03-23T17:09:50.824Z,13.37
2023-03-23T17:12:18.978Z,14.83
2023-03-23T17:14:47.031Z,13.57
2023-03-23T17:17:15.557Z,12.60
2023-03-23T17:19:43.509Z,11.03
2023-03-23T17:22:11.511Z,12.83
2023-03-23T17:24:39.490Z,12.17
2023-03-23T17:27:12.383Z,9.07
2023-03-23T17:29:40.500Z,8.47
2023-03-23T17:32:08.471Z,10.90
2023-03-23T17:34:36.832Z,6.57
2023-03-23T17:37:08.101Z,7.03
2023-03-23T17:39:42.579Z,10.47
2023-03-23T17:42:15.858Z,7.63
2023-03-23T17:44:43.960Z,9.57
2023-03-23T17:47:13.075Z,6.77
2023-03-23T17:49:41.810Z,9.73
2023-03-23T17:52:10.191Z,6.77
2023-03-23T17:54:38.206Z,7.10
2023-03-23T17:57:06.336Z,7.27
2023-03-23T17:59:37.198Z,8.27
2023-03-23T18:02:05.335Z,5.03
2023-03-23T18:04:33.437Z,9.17
2023-03-23T18:07:01.474Z,7.87
2023-03-23T18:09:29.767Z,7.13
2023-03-23T18:11:57.810Z,10.07
2023-03-23T18:14:25.770Z,6.13
2023-03-23T18:16:58.146Z,7.37
2023-03-23T18:19:26.347Z,6.73
2023-03-23T18:21:57.083Z,8.73
2023-03-23T18:24:25.538Z,9.10
2023-03-23T18:26:53.536Z,8.97
2023-03-23T18:29:21.612Z,12.87
2023-03-23T18:31:49.762Z,12.60
2023-03-23T18:34:24.270Z,10.33
2023-03-23T18:36:52.306Z,10.23
2023-03-23T18:39:20.300Z,11.47
2023-03-23T18:41:48.809Z,13.70
2023-03-23T18:44:16.927Z,13.07
2023-03-23T18:46:45.029Z,13.63
2023-03-23T18:49:13.069Z,13.60
2023-03-23T18:51:42.464Z,19.97
2023-03-23T18:54:10.892Z,17.10
2023-03-23T18:56:38.868Z,18.80
2023-03-23T18:59:09.980Z,18.60
2023-03-23T19:01:38.088Z,18.00
2023-03-23T19:04:06.574Z,16.73
2023-03-23T19:06:36.315Z,13.67
2023-03-23T19:09:06.061Z,13.47
2023-03-23T19:11:34.117Z,14.60
2023-03-23T19:14:03.798Z,13.63
2023-03-23T19:16:47.576Z,15.03
2023-03-23T19:19:16.911Z,22.10
2023-03-23T19:21:46.917Z,20.80
2023-03-23T19:24:21.321Z,17.40
2023-03-23T19:26:49.756Z,18.97
2023-03-23T19:29:26.299Z,15.90
2023-03-23T19:31:58.058Z,17.03
2023-03-23T19:34:34.004Z,16.17
2023-03-23T19:37:07.412Z,14.97
2023-03-23T19:39:48.643Z,15.63
2023-03-23T19:42:18.514Z,16.27
2023-03-23T19:44:49.233Z,15.17
2023-03-23T19:47:18.888Z,13.43
2023-03-23T19:49:48.662Z,16.33
2023-03-23T19:52:18.890Z,14.20
2023-03-23T19:54:49.823Z,14.63
2023-03-23T19:57:26.891Z,14.47
2023-03-23T19:59:59.290Z,15.77
2023-03-23T20:02:32.215Z,16.87
2023-03-23T20:05:02.510Z,19.67
2023-03-23T20:07:32.756Z,16.60
2023-03-23T20:10:06.142Z,19.70
2023-03-23T20:12:34.428Z,22.63
2023-03-23T20:15:03.350Z,20.83
2023-03-23T20:17:31.760Z,26.20
2023-03-23T20:19:59.742Z,26.50
2023-03-23T20:22:28.560Z,22.57
2023-03-23T20:24:56.668Z,27.33
2023-03-23T20:27:26.176Z,29.50
2023-03-23T20:29:55.401Z,32.43
2023-03-23T20:32:23.662Z,32.67
2023-03-23T20:34:51.733Z,33.87
2023-03-23T20:37:23.346Z,36.67
2023-03-23T20:39:51.458Z,35.03
2023-03-23T20:42:19.925Z,31.87
2023-03-23T20:44:53.057Z,27.00
2023-03-23T20:47:21.554Z,26.87
2023-03-23T20:49:52.751Z,27.53
2023-03-23T20:52:21.379Z,28.17
2023-03-23T20:54:50.363Z,25.13
2023-03-23T20:57:20.734Z,25.23
2023-03-23T20:59:51.841Z,27.17
2023-03-23T21:02:21.989Z,25.27
2023-03-23T21:04:53.064Z,21.53
2023-03-23T21:07:23.807Z,20.27
2023-03-23T21:09:51.814Z,22.60
2023-03-23T21:12:19.787Z,22.13
2023-03-23T21:14:47.835Z,22.87
2023-03-23T21:17:16.071Z,21.97
2023-03-23T21:19:45.552Z,19.97
2023-03-23T21:22:14.697Z,19.50
2023-03-23T21:24:42.942Z,23.47
2023-03-23T21:27:11.228Z,22.47
2023-03-23T21:29:39.750Z,24.73
2023-03-23T21:32:09.914Z,21.27
2023-03-23T21:34:38.913Z,25.43
2023-03-23T21:37:08.435Z,24.97
2023-03-23T21:39:36.672Z,22.50
2023-03-23T21:42:06.796Z,28.47
2023-03-23T21:44:35.814Z,22.03
2023-03-23T21:47:04.662Z,20.73
2023-03-23T21:49:33.093Z,22.80
2023-03-23T21:52:02.036Z,20.73
2023-03-23T21:54:32.166Z,21.80
2023-03-23T21:57:00.609Z,24.70
2023-03-23T21:59:29.457Z,25.00
2023-03-23T22:02:01.723Z,26.10
2023-03-23T22:04:29.745Z,32.77
2023-03-23T22:07:00.279Z,34.23
2023-03-23T22:09:28.315Z,34.10
2023-03-23T22:11:59.864Z,34.53
2023-03-23T22:14:27.886Z,35.03
2023-03-23T22:17:00.399Z,39.37
2023-03-23T22:19:30.829Z,35.17
2023-03-23T22:21:58.850Z,32.17
2023-03-23T22:24:27.180Z,32.37
2023-03-23T22:26:55.374Z,29.83
2023-03-23T22:29:24.759Z,27.60
2023-03-23T22:31:55.073Z,29.33
2023-03-23T22:34:23.042Z,28.93
2023-03-23T22:36:51.532Z,29.90
2023-03-23T22:39:19.533Z,26.93
2023-03-23T22:41:47.534Z,25.23
2023-03-23T22:44:18.128Z,25.63
2023-03-23T22:46:47.758Z,27.20
2023-03-23T22:49:16.302Z,29.13
2023-03-23T22:51:44.294Z,24.90
2023-03-23T22:54:12.476Z,26.93
2023-03-23T22:56:40.672Z,24.83
2023-03-23T22:59:09.154Z,29.90
2023-03-23T23:01:38.956Z,25.50
2023-03-23T23:04:08.480Z,24.30
2023-03-23T23:06:39.565Z,25.37
2023-03-23T23:09:07.954Z,25.13
2023-03-23T23:11:36.066Z,28.67
2023-03-23T23:14:04.208Z,29.13
2023-03-23T23:16:32.316Z,27.17
2023-03-23T23:19:00.361Z,29.27
2023-03-23T23:21:29.747Z,29.60
2023-03-23T23:24:00.451Z,26.83
2023-03-23T23:26:28.479Z,32.70
2023-03-23T23:28:57.751Z,29.07
2023-03-23T23:31:29.086Z,29.20
2023-03-23T23:34:00.781Z,24.97
2023-03-23T23:36:32.126Z,25.10
2023-03-23T23:39:01.510Z,25.33
2023-03-23T23:41:30.799Z,26.27
2023-03-23T23:43:59.500Z,25.63
2023-03-23T23:46:27.982Z,23.37
2023-03-23T23:48:56.124Z,22.03
2023-03-23T23:51:27.545Z,23.60
2023-03-23T23:53:58.801Z,26.60
2023-03-23T23:56:27.694Z,22.37
2023-03-23T23:58:56.033Z,22.40
